sensor_id;sensor_type;location;lat;lon;timestamp;pressure;altitude;pressure_sealevel;temperature;humidity
56334;BME280;42240;53.626;55.886;2023-07-29T00:01:19;74550.25;;;-145.10;100.00
56334;BME280;42240;53.626;55.886;2023-07-29T00:02:53;74536.44;;;-145.10;100.00
56334;BME280;42240;53.626;55.886;2023-07-29T00:04:27;74544.34;;;-145.10;100.00
56334;BME280;42240;53.626;55.886;2023-07-29T00:06:01;74548.28;;;-145.10;100.00
56334;BME280;42240;53.626;55.886;2023-07-29T00:07:35;74550.25;;;-145.10;100.00
56334;BME280;42240;53.626;55.886;2023-07-29T00:09:09;74564.09;;;-145.10;100.00
56334;BME280;42240;53.626;55.886;2023-07-29T00:10:43;74562.13;;;-145.10;100.00
56334;BME280;42240;53.626;55.886;2023-07-29T00:12:16;74568.06;;;-145.10;100.00
56334;BME280;42240;53.626;55.886;2023-07-29T00:13:50;74566.06;;;-145.10;100.00
56334;BME280;42240;53.626;55.886;2023-07-29T00:15:24;74562.13;;;-145.10;100.00
56334;BME280;42240;53.626;55.886;2023-07-29T00:16:58;74552.25;;;-145.10;100.00
56334;BME280;42240;53.626;55.886;2023-07-29T00:18:32;74572.00;;;-145.10;100.00
56334;BME280;42240;53.626;55.886;2023-07-29T00:20:06;74568.06;;;-145.10;100.00
56334;BME280;42240;53.626;55.886;2023-07-29T00:21:41;74579.91;;;-145.10;100.00
56334;BME280;42240;53.626;55.886;2023-07-29T00:23:15;74587.81;;;-145.10;100.00
56334;BME280;42240;53.626;55.886;2023-07-29T00:24:52;74601.66;;;-145.10;100.00
56334;BME280;42240;53.626;55.886;2023-07-29T00:26:30;74601.66;;;-145.10;100.00
56334;BME280;42240;53.626;55.886;2023-07-29T00:28:05;74607.59;;;-145.10;100.00
56334;BME280;42240;53.626;55.886;2023-07-29T00:29:39;74625.38;;;-145.10;100.00
56334;BME280;42240;53.626;55.886;2023-07-29T00:31:12;74605.59;;;-145.10;100.00
56334;BME280;42240;53.626;55.886;2023-07-29T00:32:47;74603.63;;;-145.10;100.00
56334;BME280;42240;53.626;55.886;2023-07-29T00:34:23;74613.50;;;-145.10;100.00
56334;BME280;42240;53.626;55.886;2023-07-29T00:35:57;74595.72;;;-145.10;100.00
56334;BME280;42240;53.626;55.886;2023-07-29T00:37:34;74603.63;;;-145.10;100.00
56334;BME280;42240;53.626;55.886;2023-07-29T00:39:10;74607.59;;;-145.10;100.00
56334;BME280;42240;53.626;55.886;2023-07-29T00:40:44;74599.69;;;-145.10;100.00
56334;BME280;42240;53.626;55.886;2023-07-29T00:42:17;74605.59;;;-145.10;100.00
56334;BME280;42240;53.626;55.886;2023-07-29T00:43:52;74603.63;;;-145.10;100.00
56334;BME280;42240;53.626;55.886;2023-07-29T00:45:29;74595.72;;;-145.10;100.00
56334;BME280;42240;53.626;55.886;2023-07-29T00:47:04;74595.72;;;-145.10;100.00
56334;BME280;42240;53.626;55.886;2023-07-29T00:48:39;74583.88;;;-145.10;100.00
56334;BME280;42240;53.626;55.886;2023-07-29T00:50:14;74591.78;;;-145.10;100.00
56334;BME280;42240;53.626;55.886;2023-07-29T00:51:49;74575.97;;;-145.10;100.00
56334;BME280;42240;53.626;55.886;2023-07-29T00:53:23;74572.00;;;-145.10;100.00
56334;BME280;42240;53.626;55.886;2023-07-29T00:54:57;74573.97;;;-145.10;100.00
56334;BME280;42240;53.626;55.886;2023-07-29T00:56:31;74572.00;;;-145.10;100.00
56334;BME280;42240;53.626;55.886;2023-07-29T00:58:10;74564.09;;;-145.10;100.00
56334;BME280;42240;53.626;55.886;2023-07-29T00:59:43;74562.13;;;-145.10;100.00
56334;BME280;42240;53.626;55.886;2023-07-29T01:01:17;74566.06;;;-145.10;100.00
56334;BME280;42240;53.626;55.886;2023-07-29T01:02:52;74532.47;;;-145.10;100.00
56334;BME280;42240;53.626;55.886;2023-07-29T01:04:28;74530.50;;;-145.10;100.00
56334;BME280;42240;53.626;55.886;2023-07-29T01:06:12;74492.94;;;-145.10;100.00
56334;BME280;42240;53.626;55.886;2023-07-29T01:13:50;74453.41;;;-145.10;100.00
56334;BME280;42240;53.626;55.886;2023-07-29T01:15:36;74413.91;;;-145.10;100.00
56334;BME280;42240;53.626;55.886;2023-07-29T01:17:23;74376.34;;;-145.10;100.00
56334;BME280;42240;53.626;55.886;2023-07-29T01:19:00;74340.78;;;-145.10;100.00
56334;BME280;42240;53.626;55.886;2023-07-29T01:20:42;74305.19;;;-145.10;100.00
56334;BME280;42240;53.626;55.886;2023-07-29T01:22:19;74255.78;;;-145.10;100.00
56334;BME280;42240;53.626;55.886;2023-07-29T01:23:53;74238.00;;;-145.10;100.00
56334;BME280;42240;53.626;55.886;2023-07-29T01:25:31;74204.41;;;-145.10;100.00
56334;BME280;42240;53.626;55.886;2023-07-29T01:27:04;74192.56;;;-145.10;100.00
56334;BME280;42240;53.626;55.886;2023-07-29T01:28:39;74141.16;;;-145.10;100.00
56334;BME280;42240;53.626;55.886;2023-07-29T01:30:12;74101.66;;;-145.10;100.00
56334;BME280;42240;53.626;55.886;2023-07-29T01:31:54;74062.13;;;-145.10;100.00
56334;BME280;42240;53.626;55.886;2023-07-29T01:33:40;74028.53;;;-145.10;100.00
56334;BME280;42240;53.626;55.886;2023-07-29T01:35:27;73959.38;;;-145.10;100.00
56334;BME280;42240;53.626;55.886;2023-07-29T01:37:02;73927.75;;;-145.10;100.00
56334;BME280;42240;53.626;55.886;2023-07-29T01:38:40;73911.94;;;-145.10;100.00
56334;BME280;42240;53.626;55.886;2023-07-29T01:40:15;73892.19;;;-145.10;100.00
56334;BME280;42240;53.626;55.886;2023-07-29T01:41:50;73856.63;;;-145.10;100.00
56334;BME280;42240;53.626;55.886;2023-07-29T01:43:24;73826.97;;;-145.10;100.00
56334;BME280;42240;53.626;55.886;2023-07-29T01:44:59;73832.91;;;-145.10;100.00
56334;BME280;42240;53.626;55.886;2023-07-29T01:46:36;73834.88;;;-145.10;100.00
56334;BME280;42240;53.626;55.886;2023-07-29T01:48:12;73803.25;;;-145.10;100.00
56334;BME280;42240;53.626;55.886;2023-07-29T01:49:46;73791.41;;;-145.10;100.00
56334;BME280;42240;53.626;55.886;2023-07-29T01:51:24;73761.75;;;-145.10;100.00
56334;BME280;42240;53.626;55.886;2023-07-29T01:52:58;73714.34;;;-145.10;100.00
56334;BME280;42240;53.626;55.886;2023-07-29T01:54:35;73688.66;;;-145.10;100.00
56334;BME280;42240;53.626;55.886;2023-07-29T01:56:09;73668.88;;;-145.10;100.00
56334;BME280;42240;53.626;55.886;2023-07-29T01:57:47;73615.53;;;-145.10;100.00
56334;BME280;42240;53.626;55.886;2023-07-29T01:59:22;73544.41;;;-145.10;100.00
56334;BME280;42240;53.626;55.886;2023-07-29T02:00:56;73502.91;;;-145.10;100.00
56334;BME280;42240;53.626;55.886;2023-07-29T02:02:29;73439.69;;;-145.10;97.81
56334;BME280;42240;53.626;55.886;2023-07-29T02:04:06;73429.81;;;-145.10;95.12
56334;BME280;42240;53.626;55.886;2023-07-29T02:05:40;73425.84;;;-145.10;95.00
56334;BME280;42240;53.626;55.886;2023-07-29T02:07:17;73382.38;;;-145.10;93.08
56334;BME280;42240;53.626;55.886;2023-07-29T02:08:53;73423.88;;;-145.10;92.79
56334;BME280;42240;53.626;55.886;2023-07-29T02:10:27;73404.13;;;-145.10;93.17
56334;BME280;42240;53.626;55.886;2023-07-29T02:12:01;73388.31;;;-145.10;91.81
56334;BME280;42240;53.626;55.886;2023-07-29T02:13:42;73417.94;;;-145.10;92.73
56334;BME280;42240;53.626;55.886;2023-07-29T02:15:17;73325.09;;;-145.10;91.03
56334;BME280;42240;53.626;55.886;2023-07-29T02:16:50;73338.91;;;-145.10;90.37
56334;BME280;42240;53.626;55.886;2023-07-29T02:18:28;73354.72;;;-145.10;91.11
56334;BME280;42240;53.626;55.886;2023-07-29T02:20:03;73354.72;;;-145.10;91.48
56334;BME280;42240;53.626;55.886;2023-07-29T02:21:37;73346.81;;;-145.10;89.29
56334;BME280;42240;53.626;55.886;2023-07-29T02:23:10;73331.03;;;-145.10;88.40
56334;BME280;42240;53.626;55.886;2023-07-29T02:24:45;73250.00;;;-145.10;86.48
56334;BME280;42240;53.626;55.886;2023-07-29T02:26:19;73228.28;;;-145.10;85.39
56334;BME280;42240;53.626;55.886;2023-07-29T02:27:52;73214.44;;;-145.10;84.20
56334;BME280;42240;53.626;55.886;2023-07-29T02:29:26;73169.00;;;-145.10;83.07
56334;BME280;42240;53.626;55.886;2023-07-29T02:31:23;73161.09;;;-145.10;80.23
56334;BME280;42240;53.626;55.886;2023-07-29T02:32:57;73186.78;;;-145.10;82.51
56334;BME280;42240;53.626;55.886;2023-07-29T02:34:31;73202.59;;;-145.10;83.02
56334;BME280;42240;53.626;55.886;2023-07-29T02:36:06;73070.22;;;-145.10;79.79
56334;BME280;42240;53.626;55.886;2023-07-29T02:37:39;73040.59;;;-145.10;78.44
56334;BME280;42240;53.626;55.886;2023-07-29T02:39:13;72963.53;;;-145.10;78.68
56334;BME280;42240;53.626;55.886;2023-07-29T02:40:47;72995.16;;;-145.10;72.69
56334;BME280;42240;53.626;55.886;2023-07-29T02:42:21;73054.41;;;-145.10;71.15
56334;BME280;42240;53.626;55.886;2023-07-29T02:43:55;73010.94;;;-145.10;71.70
56334;BME280;42240;53.626;55.886;2023-07-29T02:45:29;72993.19;;;-145.10;72.18
56334;BME280;42240;53.626;55.886;2023-07-29T02:47:03;72975.38;;;-145.10;72.43
56334;BME280;42240;53.626;55.886;2023-07-29T02:48:36;73010.94;;;-145.10;71.86
56334;BME280;42240;53.626;55.886;2023-07-29T02:50:10;73048.50;;;-145.10;72.54
56334;BME280;42240;53.626;55.886;2023-07-29T02:51:44;73064.28;;;-145.10;73.86
56334;BME280;42240;53.626;55.886;2023-07-29T02:53:22;73091.97;;;-145.10;76.09
56334;BME280;42240;53.626;55.886;2023-07-29T02:54:55;73034.66;;;-145.10;74.48
56334;BME280;42240;53.626;55.886;2023-07-29T02:56:29;72999.09;;;-145.10;73.62
56334;BME280;42240;53.626;55.886;2023-07-29T02:58:03;72983.28;;;-145.10;75.41
56334;BME280;42240;53.626;55.886;2023-07-29T02:59:40;72977.38;;;-145.10;74.29
56334;BME280;42240;53.626;55.886;2023-07-29T03:01:14;73007.00;;;-145.10;72.92
56334;BME280;42240;53.626;55.886;2023-07-29T03:02:49;73044.53;;;-145.10;74.62
56334;BME280;42240;53.626;55.886;2023-07-29T03:04:24;73086.03;;;-145.10;78.86
56334;BME280;42240;53.626;55.886;2023-07-29T03:06:09;73022.81;;;-145.10;76.77
56334;BME280;42240;53.626;55.886;2023-07-29T03:07:43;72967.50;;;-145.10;72.32
56334;BME280;42240;53.626;55.886;2023-07-29T03:09:17;72920.06;;;-145.10;70.98
56334;BME280;42240;53.626;55.886;2023-07-29T03:10:55;72870.69;;;-145.10;66.92
56334;BME280;42240;53.626;55.886;2023-07-29T03:12:28;72758.09;;;-145.10;63.27
56334;BME280;42240;53.626;55.886;2023-07-29T03:14:02;72696.84;;;-145.10;59.34
56334;BME280;42240;53.626;55.886;2023-07-29T03:15:36;72728.44;;;-145.10;55.99
56334;BME280;42240;53.626;55.886;2023-07-29T03:17:10;72633.63;;;-145.10;53.66
56334;BME280;42240;53.626;55.886;2023-07-29T03:18:44;72679.06;;;-145.10;56.86
56334;BME280;42240;53.626;55.886;2023-07-29T03:20:19;72635.59;;;-145.10;54.76
56334;BME280;42240;53.626;55.886;2023-07-29T03:21:52;72655.34;;;-145.10;52.32
56334;BME280;42240;53.626;55.886;2023-07-29T03:23:28;72722.53;;;-145.10;54.36
56334;BME280;42240;53.626;55.886;2023-07-29T03:25:01;72720.53;;;-145.10;56.02
56334;BME280;42240;53.626;55.886;2023-07-29T03:26:35;72631.66;;;-145.10;53.78
56334;BME280;42240;53.626;55.886;2023-07-29T03:28:09;72714.63;;;-145.10;56.65
56334;BME280;42240;53.626;55.886;2023-07-29T03:29:43;72690.91;;;-145.10;56.22
56334;BME280;42240;53.626;55.886;2023-07-29T03:31:16;72605.97;;;-145.10;52.93
56334;BME280;42240;53.626;55.886;2023-07-29T03:32:52;72706.72;;;-145.10;53.75
56334;BME280;42240;53.626;55.886;2023-07-29T03:34:26;72633.63;;;-145.10;53.87
56334;BME280;42240;53.626;55.886;2023-07-29T03:36:00;72623.75;;;-145.10;51.91
56334;BME280;42240;53.626;55.886;2023-07-29T03:37:34;72627.69;;;-145.10;52.20
56334;BME280;42240;53.626;55.886;2023-07-29T03:39:07;72649.44;;;-145.10;51.07
56334;BME280;42240;53.626;55.886;2023-07-29T03:40:41;72677.09;;;-145.10;52.13
56334;BME280;42240;53.626;55.886;2023-07-29T03:42:15;72604.00;;;-145.10;51.19
56334;BME280;42240;53.626;55.886;2023-07-29T03:43:49;72655.34;;;-145.10;50.48
56334;BME280;42240;53.626;55.886;2023-07-29T03:45:23;72600.03;;;-145.10;49.01
56334;BME280;42240;53.626;55.886;2023-07-29T03:46:56;72633.63;;;-145.10;49.90
56334;BME280;42240;53.626;55.886;2023-07-29T03:48:30;72679.06;;;-145.10;50.21
56334;BME280;42240;53.626;55.886;2023-07-29T03:50:05;72611.91;;;-145.10;49.16
56334;BME280;42240;53.626;55.886;2023-07-29T03:51:39;72548.69;;;-145.10;48.05
56334;BME280;42240;53.626;55.886;2023-07-29T03:53:13;72519.06;;;-145.10;45.44
56334;BME280;42240;53.626;55.886;2023-07-29T03:54:46;72489.41;;;-145.10;46.65
56334;BME280;42240;53.626;55.886;2023-07-29T03:56:20;72546.72;;;-145.10;45.31
56334;BME280;42240;53.626;55.886;2023-07-29T03:57:54;72493.38;;;-145.10;45.34
56334;BME280;42240;53.626;55.886;2023-07-29T03:59:30;72434.13;;;-145.10;43.97
56334;BME280;42240;53.626;55.886;2023-07-29T04:01:04;72388.69;;;-145.10;43.40
56334;BME280;42240;53.626;55.886;2023-07-29T04:02:37;72343.25;;;-145.10;43.68
56334;BME280;42240;53.626;55.886;2023-07-29T04:04:12;72339.28;;;-145.10;41.76
56334;BME280;42240;53.626;55.886;2023-07-29T04:05:46;72378.81;;;-145.10;42.32
56334;BME280;42240;53.626;55.886;2023-07-29T04:07:20;72467.69;;;-145.10;43.85
56334;BME280;42240;53.626;55.886;2023-07-29T04:08:54;72382.75;;;-145.10;41.66
56334;BME280;42240;53.626;55.886;2023-07-29T04:10:28;72440.03;;;-145.10;41.53
56334;BME280;42240;53.626;55.886;2023-07-29T04:12:05;72357.06;;;-145.10;41.92
56334;BME280;42240;53.626;55.886;2023-07-29T04:13:39;72333.38;;;-145.10;40.55
56334;BME280;42240;53.626;55.886;2023-07-29T04:15:13;72370.91;;;-145.10;38.52
56334;BME280;42240;53.626;55.886;2023-07-29T04:16:46;72394.59;;;-145.10;39.20
56334;BME280;42240;53.626;55.886;2023-07-29T04:18:22;72410.41;;;-145.10;39.34
56334;BME280;42240;53.626;55.886;2023-07-29T04:19:56;72388.69;;;-145.10;39.23
56334;BME280;42240;53.626;55.886;2023-07-29T04:21:34;72406.47;;;-145.10;39.13
56334;BME280;42240;53.626;55.886;2023-07-29T04:23:09;72434.13;;;-145.10;40.85
56334;BME280;42240;53.626;55.886;2023-07-29T04:24:43;72509.19;;;-145.10;40.58
56334;BME280;42240;53.626;55.886;2023-07-29T04:26:19;72420.28;;;-145.10;41.52
56334;BME280;42240;53.626;55.886;2023-07-29T04:27:53;72404.47;;;-145.10;39.21
56334;BME280;42240;53.626;55.886;2023-07-29T04:29:39;72374.84;;;-145.10;39.08
56334;BME280;42240;53.626;55.886;2023-07-29T04:31:12;72410.41;;;-145.10;38.10
56334;BME280;42240;53.626;55.886;2023-07-29T04:32:46;72299.78;;;-145.10;38.25
56334;BME280;42240;53.626;55.886;2023-07-29T04:34:21;72303.75;;;-145.10;37.65
56334;BME280;42240;53.626;55.886;2023-07-29T04:35:55;72268.19;;;-145.10;37.12
56334;BME280;42240;53.626;55.886;2023-07-29T04:37:29;72396.59;;;-145.10;36.93
56334;BME280;42240;53.626;55.886;2023-07-29T04:39:04;72461.75;;;-145.10;38.60
56334;BME280;42240;53.626;55.886;2023-07-29T04:40:37;72404.47;;;-145.10;38.24
56334;BME280;42240;53.626;55.886;2023-07-29T04:42:14;72394.59;;;-145.10;38.09
56334;BME280;42240;53.626;55.886;2023-07-29T04:43:47;72345.22;;;-145.10;37.42
56334;BME280;42240;53.626;55.886;2023-07-29T04:45:23;72311.63;;;-145.10;36.55
56334;BME280;42240;53.626;55.886;2023-07-29T04:47:01;72212.88;;;-145.10;35.78
56334;BME280;42240;53.626;55.886;2023-07-29T04:48:35;72216.84;;;-145.10;34.11
56334;BME280;42240;53.626;55.886;2023-07-29T04:50:09;72299.78;;;-145.10;35.03
56334;BME280;42240;53.626;55.886;2023-07-29T04:51:43;72204.97;;;-145.10;35.07
56334;BME280;42240;53.626;55.886;2023-07-29T04:53:26;72220.78;;;-145.10;34.57
56334;BME280;42240;53.626;55.886;2023-07-29T04:55:35;72177.31;;;-145.10;34.56
56334;BME280;42240;53.626;55.886;2023-07-29T04:57:09;72078.56;;;-145.10;33.27
56334;BME280;42240;53.626;55.886;2023-07-29T05:01:15;72228.69;;;-145.10;34.34
56334;BME280;42240;53.626;55.886;2023-07-29T05:02:49;72234.59;;;-145.10;34.51
56334;BME280;42240;53.626;55.886;2023-07-29T05:04:23;72278.06;;;-145.10;35.03
56334;BME280;42240;53.626;55.886;2023-07-29T05:05:58;72102.28;;;-145.10;34.14
56334;BME280;42240;53.626;55.886;2023-07-29T05:07:33;72153.63;;;-145.10;34.08
56334;BME280;42240;53.626;55.886;2023-07-29T05:09:18;72149.69;;;-145.10;33.95
56334;BME280;42240;53.626;55.886;2023-07-29T05:10:55;72039.06;;;-145.10;34.08
56334;BME280;42240;53.626;55.886;2023-07-29T05:12:29;72090.41;;;-145.10;34.03
56334;BME280;42240;53.626;55.886;2023-07-29T05:14:03;72125.97;;;-145.10;34.68
56334;BME280;42240;53.626;55.886;2023-07-29T05:15:42;72236.59;;;-145.10;35.93
56334;BME280;42240;53.626;55.886;2023-07-29T05:17:15;72240.53;;;-145.10;35.39
56334;BME280;42240;53.626;55.886;2023-07-29T05:18:49;72276.09;;;-145.10;35.98
56334;BME280;42240;53.626;55.886;2023-07-29T05:20:23;72149.69;;;-145.10;36.43
56334;BME280;42240;53.626;55.886;2023-07-29T05:21:57;72054.88;;;-145.10;33.61
56334;BME280;42240;53.626;55.886;2023-07-29T05:23:30;72029.19;;;-145.10;32.00
56334;BME280;42240;53.626;55.886;2023-07-29T05:25:05;72058.81;;;-145.10;33.01
56334;BME280;42240;53.626;55.886;2023-07-29T05:26:39;72013.38;;;-145.10;31.25
56334;BME280;42240;53.626;55.886;2023-07-29T05:28:15;72145.72;;;-145.10;32.65
56334;BME280;42240;53.626;55.886;2023-07-29T05:29:49;72110.16;;;-145.10;32.15
56334;BME280;42240;53.626;55.886;2023-07-29T05:31:23;72090.41;;;-145.10;31.99
56334;BME280;42240;53.626;55.886;2023-07-29T05:32:57;72029.19;;;-145.10;31.97
56334;BME280;42240;53.626;55.886;2023-07-29T05:34:31;71973.88;;;-145.10;31.35
56334;BME280;42240;53.626;55.886;2023-07-29T05:36:05;71912.66;;;-145.10;30.71
56334;BME280;42240;53.626;55.886;2023-07-29T05:37:42;71928.47;;;-145.10;30.45
56334;BME280;42240;53.626;55.886;2023-07-29T05:39:16;72058.81;;;-145.10;31.33
56334;BME280;42240;53.626;55.886;2023-07-29T05:40:50;72088.44;;;-145.10;32.15
56334;BME280;42240;53.626;55.886;2023-07-29T05:42:24;72092.41;;;-145.10;32.05
56334;BME280;42240;53.626;55.886;2023-07-29T05:43:58;72098.31;;;-145.10;31.47
56334;BME280;42240;53.626;55.886;2023-07-29T05:45:32;72054.88;;;-145.10;31.28
56334;BME280;42240;53.626;55.886;2023-07-29T05:47:05;72054.88;;;-145.10;30.42
56334;BME280;42240;53.626;55.886;2023-07-29T05:48:40;72064.75;;;-145.10;30.80
56334;BME280;42240;53.626;55.886;2023-07-29T05:50:13;71940.31;;;-145.10;30.35
56334;BME280;42240;53.626;55.886;2023-07-29T05:51:47;71973.88;;;-145.10;30.29
56334;BME280;42240;53.626;55.886;2023-07-29T05:53:22;72023.25;;;-145.10;30.86
56334;BME280;42240;53.626;55.886;2023-07-29T05:54:55;71995.59;;;-145.10;29.82
56334;BME280;42240;53.626;55.886;2023-07-29T05:56:29;72037.09;;;-145.10;29.43
56334;BME280;42240;53.626;55.886;2023-07-29T05:58:04;72052.88;;;-145.10;30.02
56334;BME280;42240;53.626;55.886;2023-07-29T05:59:38;72125.97;;;-145.10;30.18
56334;BME280;42240;53.626;55.886;2023-07-29T06:01:11;72086.47;;;-145.10;30.21
56334;BME280;42240;53.626;55.886;2023-07-29T06:02:46;72066.72;;;-145.10;30.70
56334;BME280;42240;53.626;55.886;2023-07-29T06:04:24;72098.31;;;-145.10;30.89
56334;BME280;42240;53.626;55.886;2023-07-29T06:05:59;72157.56;;;-145.10;30.47
56334;BME280;42240;53.626;55.886;2023-07-29T06:07:32;72161.53;;;-145.10;29.99
56334;BME280;42240;53.626;55.886;2023-07-29T06:09:06;72163.50;;;-145.10;30.21
56334;BME280;42240;53.626;55.886;2023-07-29T06:10:40;72094.38;;;-145.10;29.80
56334;BME280;42240;53.626;55.886;2023-07-29T06:12:14;72060.78;;;-145.10;29.36
56334;BME280;42240;53.626;55.886;2023-07-29T06:13:48;72072.63;;;-145.10;29.68
56334;BME280;42240;53.626;55.886;2023-07-29T06:15:21;72106.22;;;-145.10;30.06
56334;BME280;42240;53.626;55.886;2023-07-29T06:16:59;72153.63;;;-145.10;30.33
56334;BME280;42240;53.626;55.886;2023-07-29T06:18:34;72232.63;;;-145.10;30.32
56334;BME280;42240;53.626;55.886;2023-07-29T06:20:09;72260.28;;;-145.10;30.89
56334;BME280;42240;53.626;55.886;2023-07-29T06:21:43;72246.47;;;-145.10;31.22
56334;BME280;42240;53.626;55.886;2023-07-29T06:23:17;72236.59;;;-145.10;31.31
56334;BME280;42240;53.626;55.886;2023-07-29T06:24:52;72311.63;;;-145.10;31.40
56334;BME280;42240;53.626;55.886;2023-07-29T06:26:25;72291.88;;;-145.10;31.49
56334;BME280;42240;53.626;55.886;2023-07-29T06:27:59;72228.69;;;-145.10;31.30
56334;BME280;42240;53.626;55.886;2023-07-29T06:29:33;72187.19;;;-145.10;30.63
56334;BME280;42240;53.626;55.886;2023-07-29T06:31:07;72252.38;;;-145.10;30.65
56334;BME280;42240;53.626;55.886;2023-07-29T06:32:41;72141.78;;;-145.10;30.71
56334;BME280;42240;53.626;55.886;2023-07-29T06:34:15;72110.16;;;-145.10;30.65
56334;BME280;42240;53.626;55.886;2023-07-29T06:35:49;72214.84;;;-145.10;30.24
56334;BME280;42240;53.626;55.886;2023-07-29T06:37:22;72244.47;;;-145.10;30.74
56334;BME280;42240;53.626;55.886;2023-07-29T06:39:01;72366.94;;;-145.10;31.60
56334;BME280;42240;53.626;55.886;2023-07-29T06:40:42;72394.59;;;-145.10;31.56
56334;BME280;42240;53.626;55.886;2023-07-29T06:42:16;72293.88;;;-145.10;32.06
56334;BME280;42240;53.626;55.886;2023-07-29T06:43:49;72264.22;;;-145.10;31.05
56334;BME280;42240;53.626;55.886;2023-07-29T06:45:26;72331.41;;;-145.10;30.45
56334;BME280;42240;53.626;55.886;2023-07-29T06:47:06;72363.00;;;-145.10;30.33
56334;BME280;42240;53.626;55.886;2023-07-29T06:48:46;72364.97;;;-145.10;30.81
56334;BME280;42240;53.626;55.886;2023-07-29T06:50:20;72410.41;;;-145.10;30.87
56334;BME280;42240;53.626;55.886;2023-07-29T06:51:54;72414.34;;;-145.10;32.65
56334;BME280;42240;53.626;55.886;2023-07-29T06:53:28;72366.94;;;-145.10;31.39
56334;BME280;42240;53.626;55.886;2023-07-29T06:55:05;72394.59;;;-145.10;32.81
56334;BME280;42240;53.626;55.886;2023-07-29T06:56:41;72396.59;;;-145.10;32.10
56334;BME280;42240;53.626;55.886;2023-07-29T06:58:15;72353.13;;;-145.10;32.83
56334;BME280;42240;53.626;55.886;2023-07-29T06:59:49;72366.94;;;-145.10;34.38
56334;BME280;42240;53.626;55.886;2023-07-29T07:01:23;72408.44;;;-145.10;33.07
56334;BME280;42240;53.626;55.886;2023-07-29T07:02:58;72451.88;;;-145.10;34.20
56334;BME280;42240;53.626;55.886;2023-07-29T07:04:34;72483.50;;;-145.10;33.67
56334;BME280;42240;53.626;55.886;2023-07-29T07:06:07;72592.13;;;-145.10;34.41
56334;BME280;42240;53.626;55.886;2023-07-29T07:07:41;72588.19;;;-145.10;36.50
56334;BME280;42240;53.626;55.886;2023-07-29T07:09:15;72544.72;;;-145.10;38.29
56334;BME280;42240;53.626;55.886;2023-07-29T07:10:48;72493.38;;;-145.10;37.06
56334;BME280;42240;53.626;55.886;2023-07-29T07:12:22;72526.94;;;-145.10;34.86
56334;BME280;42240;53.626;55.886;2023-07-29T07:13:58;72501.28;;;-145.10;36.31
56334;BME280;42240;53.626;55.886;2023-07-29T07:15:32;72473.63;;;-145.10;37.25
56334;BME280;42240;53.626;55.886;2023-07-29T07:17:05;72501.28;;;-145.10;34.25
56334;BME280;42240;53.626;55.886;2023-07-29T07:18:42;72651.41;;;-145.10;33.72
56334;BME280;42240;53.626;55.886;2023-07-29T07:20:16;72677.09;;;-145.10;34.03
56334;BME280;42240;53.626;55.886;2023-07-29T07:21:49;72685.00;;;-145.10;36.05
56334;BME280;42240;53.626;55.886;2023-07-29T07:23:23;72694.88;;;-145.10;36.92
56334;BME280;42240;53.626;55.886;2023-07-29T07:24:56;72615.84;;;-145.10;37.39
56334;BME280;42240;53.626;55.886;2023-07-29T07:26:30;72594.13;;;-145.10;38.08
56334;BME280;42240;53.626;55.886;2023-07-29T07:28:04;72592.13;;;-145.10;38.05
56334;BME280;42240;53.626;55.886;2023-07-29T07:29:37;72546.72;;;-145.10;37.71
56334;BME280;42240;53.626;55.886;2023-07-29T07:31:11;72605.97;;;-145.10;38.70
56334;BME280;42240;53.626;55.886;2023-07-29T07:32:44;72655.34;;;-145.10;41.18
56334;BME280;42240;53.626;55.886;2023-07-29T07:34:21;72643.50;;;-145.10;41.63
56334;BME280;42240;53.626;55.886;2023-07-29T07:35:57;72665.22;;;-145.10;42.21
56334;BME280;42240;53.626;55.886;2023-07-29T07:37:31;72702.78;;;-145.10;41.05
56334;BME280;42240;53.626;55.886;2023-07-29T07:39:05;72686.97;;;-145.10;41.32
56334;BME280;42240;53.626;55.886;2023-07-29T07:40:39;72671.16;;;-145.10;40.20
56334;BME280;42240;53.626;55.886;2023-07-29T07:42:13;72698.81;;;-145.10;37.37
56334;BME280;42240;53.626;55.886;2023-07-29T07:43:46;72694.88;;;-145.10;37.05
56334;BME280;42240;53.626;55.886;2023-07-29T07:45:20;72730.44;;;-145.10;39.47
56334;BME280;42240;53.626;55.886;2023-07-29T07:46:54;72762.03;;;-145.10;35.49
56334;BME280;42240;53.626;55.886;2023-07-29T07:48:33;72706.72;;;-145.10;37.93
56334;BME280;42240;53.626;55.886;2023-07-29T07:50:07;72631.66;;;-145.10;40.42
56334;BME280;42240;53.626;55.886;2023-07-29T07:51:40;72643.50;;;-145.10;38.24
56334;BME280;42240;53.626;55.886;2023-07-29T07:53:17;72690.91;;;-145.10;39.01
56334;BME280;42240;53.626;55.886;2023-07-29T07:54:54;72698.81;;;-145.10;39.27
56334;BME280;42240;53.626;55.886;2023-07-29T07:56:28;72736.34;;;-145.10;40.32
56334;BME280;42240;53.626;55.886;2023-07-29T07:58:01;72694.88;;;-145.10;40.03
56334;BME280;42240;53.626;55.886;2023-07-29T07:59:36;72702.78;;;-145.10;40.75
56334;BME280;42240;53.626;55.886;2023-07-29T08:01:11;72675.13;;;-145.10;40.51
56334;BME280;42240;53.626;55.886;2023-07-29T08:02:45;72671.16;;;-145.10;39.75
56334;BME280;42240;53.626;55.886;2023-07-29T08:04:18;72665.22;;;-145.10;37.55
56334;BME280;42240;53.626;55.886;2023-07-29T08:05:52;72607.94;;;-145.10;40.71
56334;BME280;42240;53.626;55.886;2023-07-29T08:07:26;72602.03;;;-145.10;37.94
56334;BME280;42240;53.626;55.886;2023-07-29T08:09:00;72604.00;;;-145.10;37.16
56334;BME280;42240;53.626;55.886;2023-07-29T08:10:33;72641.53;;;-145.10;37.93
56334;BME280;42240;53.626;55.886;2023-07-29T08:12:08;72653.38;;;-145.10;36.94